Great Falls International Airport
KGTF : now visible

Airfield :











YOU CAN JOIN US ON...

 
LOGIN :

Register | Disclaimer

   EN    FR    IT 

 









Legend :    VFR   Marginal VFR   IFR   Intensive IFR   Very Intensive IFR
Visi :
Ceiling :
>= 8 km
>= 3000ft
5 to 8 km
1000 to 3000 ft
1500m to 5 km
500 to 1000 ft
800 to 1500m
200 to 500 ft
< 800m
< 200 ft
Symbols :   Thunderstorms  Fog  Heavy snow  Heavy precipitations  Wind > 20 kt






- Airport Elevation : 3680 ft
- IATA code : GTF


KGTF - Great Falls International

CURRENT METAR :
  • 030753Z 24010KT 10SM SCT120 13/11 A2999 RMK AO2 PRESRR SLP132 T01330111

EXPIRED METARs :
  • 030653Z 32008KT 10SM CLR 13/11 A2996 RMK AO2 SLP123 T01280111 402890106
  • 030553Z 00000KT 10SM CLR 14/11 A2997 RMK AO2 SLP129 60000 T01390111 10283 20133 56008

TAF KGTF
Valid from the 03 at 06:00 until the 04 at 06:00 UTC


030524Z 0306/0406 VRB06KT P6SM FEW090 SCT120
TEMPO 0310/0314 -SHRA SCT050 BKN090
FM031500 33007KT P6SM VCSH SCT030 BKN050
TEMPO 0315/0319 4SM -SHRA BR SCT015 BKN030
FM032000 34009KT P6SM VCTS SCT025CB BKN050
PROB30 0321/0403 VRB25G40KT 4SM TSRA BR OVC025CB
KZLC FIR / North America



MET'MAP, your aeronautical weather chart ! - Copyright ORBIFLY December 2007 - Disclaimer

ORBIFLY MET'MAP TEAM :

Programming & Development : Alexandra Zaïnal
Original concept : Baudouin d'Aumeries
Technical & hardware support : Manuel Goepfert
Assistance : Marc-Olivier Méhu




SOURCES & CREDITS :

   NOAA       Earth
Advisory